Time;durP1;ratioP1;P1;durP2;ratioP2;P2;SDS_P1;SDS_P2;PMS_P1;PMS_P2;Temp;Humidity;BMP_temperature;BMP_pressure;BME280_temperature;BME280_humidity;BME280_pressure;Samples;Min_cycle;Max_cycle;Signal;HPM_P1;HPM_P2
2024/01/07 00:00:11;;;;;;;16.75;9.50;;;;;;;;;;1034495;28;20049;-65
2024/01/07 00:00:42;;;;;;;22.45;10.90;;;;;;;;;;1036568;28;20049;-64
2024/01/07 00:01:32;;;;;;;17.95;10.27;;;;;;;;;;1036806;28;20080;-64
2024/01/07 00:02:03;;;;;;;14.88;8.85;;;;;;;;;;1036528;28;20045;-66
2024/01/07 00:02:34;;;;;;;20.88;9.80;;;;;;;;;;1035056;28;20045;-65
2024/01/07 00:03:04;;;;;;;19.55;9.10;;;;;;;;;;1034226;28;20200;-64
2024/01/07 00:03:35;;;;;;;19.17;10.02;;;;;;;;;;1034690;28;20056;-64
2024/01/07 00:04:05;;;;;;;22.05;9.73;;;;;;;;;;1036388;28;20053;-66
2024/01/07 00:04:36;;;;;;;20.73;9.77;;;;;;;;;;1037333;28;20050;-65
2024/01/07 00:05:07;;;;;;;17.70;9.35;;;;;;;;;;1035054;28;20069;-64
2024/01/07 00:05:38;;;;;;;18.63;9.85;;;;;;;;;;1035557;28;20042;-63
2024/01/07 00:06:10;;;;;;;17.33;9.38;;;;;;;;;;1036854;28;20045;-65
2024/01/07 00:06:41;;;;;;;16.08;9.80;;;;;;;;;;1037047;28;20409;-65
2024/01/07 00:07:11;;;;;;;18.10;9.85;;;;;;;;;;1035956;28;20483;-64
2024/01/07 00:07:42;;;;;;;21.05;10.68;;;;;;;;;;1037432;28;20092;-64
2024/01/07 00:08:12;;;;;;;18.25;9.75;;;;;;;;;;1036954;28;20050;-65
2024/01/07 00:08:43;;;;;;;18.73;10.27;;;;;;;;;;1037036;28;20096;-64
2024/01/07 00:09:13;;;;;;;21.98;9.93;;;;;;;;;;1036809;28;20052;-65
2024/01/07 00:09:44;;;;;;;23.15;10.38;;;;;;;;;;1035855;28;20053;-65
2024/01/07 00:10:15;;;;;;;20.02;10.23;;;;;;;;;;1036201;28;20482;-65
2024/01/07 00:10:45;;;;;;;20.80;9.50;;;;;;;;;;1036308;28;20037;-64
2024/01/07 00:11:16;;;;;;;18.40;10.18;;;;;;;;;;1037311;28;20053;-66
2024/01/07 00:11:46;;;;;;;21.20;10.80;;;;;;;;;;1035332;28;20076;-65
2024/01/07 00:12:17;;;;;;;21.75;10.57;;;;;;;;;;1036763;28;20100;-64
2024/01/07 00:12:48;;;;;;;19.33;9.88;;;;;;;;;;1036679;28;20065;-64
2024/01/07 00:13:18;;;;;;;20.05;10.02;;;;;;;;;;1036770;28;20057;-65
2024/01/07 00:13:49;;;;;;;17.50;9.27;;;;;;;;;;1036429;28;20049;-64
2024/01/07 00:14:19;;;;;;;17.48;9.07;;;;;;;;;;1035622;28;20072;-65
2024/01/07 00:14:50;;;;;;;19.33;9.40;;;;;;;;;;1037808;28;20049;-64
2024/01/07 00:15:20;;;;;;;20.02;10.20;;;;;;;;;;1036576;28;20045;-65
2024/01/07 00:15:53;;;;;;;22.40;10.45;;;;;;;;;;1037809;28;20033;-64
2024/01/07 00:16:24;;;;;;;18.40;10.43;;;;;;;;;;1036305;28;20800;-65
2024/01/07 00:16:54;;;;;;;24.00;11.00;;;;;;;;;;1036345;28;20512;-64
2024/01/07 00:17:25;;;;;;;20.05;10.90;;;;;;;;;;1035711;28;20521;-65
2024/01/07 00:17:56;;;;;;;19.75;10.18;;;;;;;;;;1034756;28;20135;-63
2024/01/07 00:18:27;;;;;;;18.60;9.70;;;;;;;;;;1035925;28;20053;-64
2024/01/07 00:18:57;;;;;;;22.48;10.35;;;;;;;;;;1032259;28;20064;-63
2024/01/07 00:19:28;;;;;;;21.25;10.13;;;;;;;;;;1032244;28;20053;-63
2024/01/07 00:19:58;;;;;;;22.42;10.48;;;;;;;;;;1036619;28;20060;-65
2024/01/07 00:20:29;;;;;;;20.45;9.45;;;;;;;;;;1036434;28;20167;-65
2024/01/07 00:20:59;;;;;;;22.25;11.40;;;;;;;;;;1036980;28;20084;-64
2024/01/07 00:21:31;;;;;;;20.90;9.77;;;;;;;;;;1037979;28;20064;-65
2024/01/07 00:22:01;;;;;;;22.05;10.43;;;;;;;;;;1037984;28;20606;-64
2024/01/07 00:22:32;;;;;;;17.17;10.45;;;;;;;;;;1036121;28;20811;-64
2024/01/07 00:23:03;;;;;;;22.50;9.98;;;;;;;;;;1035594;28;20533;-64
2024/01/07 00:23:34;;;;;;;18.10;10.20;;;;;;;;;;1035293;28;20713;-65
2024/01/07 00:24:04;;;;;;;17.15;10.23;;;;;;;;;;1037968;28;20049;-65
2024/01/07 00:24:35;;;;;;;23.33;10.05;;;;;;;;;;1034578;28;20091;-66
2024/01/07 00:25:06;;;;;;;23.00;10.65;;;;;;;;;;1036433;28;20129;-65
2024/01/07 00:25:36;;;;;;;19.88;10.88;;;;;;;;;;1037795;28;20421;-64
2024/01/07 00:26:07;;;;;;;19.63;9.93;;;;;;;;;;1038979;28;20959;-66
2024/01/07 00:26:37;;;;;;;19.88;10.15;;;;;;;;;;1039634;28;20076;-65
2024/01/07 00:27:08;;;;;;;24.38;9.40;;;;;;;;;;1039203;28;20433;-65
2024/01/07 00:27:38;;;;;;;20.30;9.40;;;;;;;;;;1034394;28;20060;-64
2024/01/07 00:28:09;;;;;;;21.15;10.57;;;;;;;;;;1034907;28;20083;-65
2024/01/07 00:28:39;;;;;;;21.27;9.40;;;;;;;;;;1034695;28;20054;-65
2024/01/07 00:29:10;;;;;;;22.67;9.82;;;;;;;;;;1034545;28;20104;-63
2024/01/07 00:29:41;;;;;;;21.88;10.10;;;;;;;;;;1035320;28;20470;-64
2024/01/07 00:30:11;;;;;;;21.25;9.70;;;;;;;;;;1036837;28;20046;-65
2024/01/07 00:30:42;;;;;;;18.30;9.70;;;;;;;;;;1036098;28;20161;-65
2024/01/07 00:31:12;;;;;;;27.48;11.15;;;;;;;;;;1036916;28;20045;-65
2024/01/07 00:31:43;;;;;;;23.25;10.07;;;;;;;;;;1034447;28;20129;-65
2024/01/07 00:32:14;;;;;;;21.48;10.98;;;;;;;;;;1035658;28;20533;-64
2024/01/07 00:32:45;;;;;;;19.33;10.35;;;;;;;;;;1036223;28;20593;-64
2024/01/07 00:33:15;;;;;;;19.42;10.27;;;;;;;;;;1036888;28;20073;-64
2024/01/07 00:33:46;;;;;;;21.38;10.18;;;;;;;;;;1036014;28;20147;-64
2024/01/07 00:34:16;;;;;;;20.88;11.32;;;;;;;;;;1037548;28;20383;-64
2024/01/07 00:34:46;;;;;;;19.73;10.90;;;;;;;;;;1036694;28;20397;-65
2024/01/07 00:35:17;;;;;;;21.25;11.00;;;;;;;;;;1037050;28;20056;-64
2024/01/07 00:35:48;;;;;;;24.02;10.13;;;;;;;;;;1036294;28;20076;-64
2024/01/07 00:36:19;;;;;;;18.10;9.63;;;;;;;;;;1036063;28;20147;-64
2024/01/07 00:36:49;;;;;;;19.67;10.23;;;;;;;;;;1037517;28;20072;-65
2024/01/07 00:37:20;;;;;;;20.50;11.68;;;;;;;;;;1035976;28;20072;-65
2024/01/07 00:37:50;;;;;;;17.50;9.80;;;;;;;;;;1036678;28;20605;-65
2024/01/07 00:38:21;;;;;;;23.25;11.15;;;;;;;;;;1036968;28;20060;-66
2024/01/07 00:38:51;;;;;;;19.23;9.27;;;;;;;;;;1037633;28;20049;-66
2024/01/07 00:39:22;;;;;;;20.70;9.32;;;;;;;;;;1037447;28;20045;-65
2024/01/07 00:39:53;;;;;;;21.08;10.10;;;;;;;;;;1037340;28;20164;-63
2024/01/07 00:40:23;;;;;;;21.85;10.27;;;;;;;;;;1037562;28;20200;-65
2024/01/07 00:40:54;;;;;;;20.60;9.82;;;;;;;;;;1035931;28;20755;-65
2024/01/07 00:41:24;;;;;;;23.48;11.05;;;;;;;;;;1036675;28;20072;-65
2024/01/07 00:41:55;;;;;;;22.95;10.57;;;;;;;;;;1034853;28;20390;-64
2024/01/07 00:42:25;;;;;;;20.75;11.43;;;;;;;;;;1037161;28;20058;-64
2024/01/07 00:42:56;;;;;;;21.52;11.93;;;;;;;;;;1035389;28;20049;-65
2024/01/07 00:43:26;;;;;;;21.73;11.07;;;;;;;;;;1038183;28;20090;-64
2024/01/07 00:43:57;;;;;;;17.85;10.00;;;;;;;;;;1037441;28;20607;-65
2024/01/07 00:44:28;;;;;;;20.23;10.55;;;;;;;;;;1036469;28;20057;-65
2024/01/07 00:44:58;;;;;;;19.77;9.75;;;;;;;;;;1036543;28;20077;-66
2024/01/07 00:45:29;;;;;;;20.75;10.38;;;;;;;;;;1035557;28;20060;-65
2024/01/07 00:45:59;;;;;;;19.95;10.35;;;;;;;;;;1036200;28;20058;-64
2024/01/07 00:46:29;;;;;;;20.65;10.57;;;;;;;;;;1035851;28;20079;-65
2024/01/07 00:47:00;;;;;;;24.23;11.18;;;;;;;;;;1036854;28;20053;-64
2024/01/07 00:47:31;;;;;;;17.95;10.45;;;;;;;;;;1038216;28;20506;-66
2024/01/07 00:48:01;;;;;;;23.23;9.77;;;;;;;;;;1037207;28;20131;-65
2024/01/07 00:48:32;;;;;;;20.67;10.10;;;;;;;;;;1036891;28;20042;-64
2024/01/07 00:49:02;;;;;;;21.75;10.80;;;;;;;;;;1036524;28;20399;-64
2024/01/07 00:49:33;;;;;;;18.40;10.38;;;;;;;;;;1035292;28;20054;-64
2024/01/07 00:50:04;;;;;;;19.52;9.60;;;;;;;;;;1036701;28;20045;-64
2024/01/07 00:50:34;;;;;;;18.63;10.32;;;;;;;;;;1037377;28;20045;-64
2024/01/07 00:51:05;;;;;;;18.40;9.52;;;;;;;;;;1036905;28;20038;-64
2024/01/07 00:51:36;;;;;;;21.20;9.82;;;;;;;;;;1036165;28;20061;-64
2024/01/07 00:52:06;;;;;;;21.70;10.00;;;;;;;;;;1036511;28;20136;-64
2024/01/07 00:52:37;;;;;;;21.02;9.93;;;;;;;;;;1037108;28;20053;-65
2024/01/07 00:53:07;;;;;;;22.27;10.95;;;;;;;;;;1035867;28;20046;-64
2024/01/07 00:53:38;;;;;;;24.40;11.32;;;;;;;;;;1037332;28;20053;-66
2024/01/07 00:54:08;;;;;;;26.20;11.35;;;;;;;;;;1037578;28;20827;-65
2024/01/07 00:54:39;;;;;;;25.15;10.82;;;;;;;;;;1035546;28;20080;-66
2024/01/07 00:55:10;;;;;;;21.95;11.68;;;;;;;;;;1036849;28;20115;-65
2024/01/07 00:55:40;;;;;;;22.42;11.63;;;;;;;;;;1037193;28;20049;-65
2024/01/07 00:56:11;;;;;;;22.73;11.20;;;;;;;;;;1037950;28;20047;-65
2024/01/07 00:56:41;;;;;;;18.02;9.15;;;;;;;;;;1036176;28;20111;-65
2024/01/07 00:57:14;;;;;;;18.88;10.05;;;;;;;;;;1038135;28;20053;-64
2024/01/07 00:57:45;;;;;;;21.17;10.48;;;;;;;;;;1036326;28;20045;-64
2024/01/07 00:58:15;;;;;;;20.38;11.55;;;;;;;;;;1037184;28;20062;-65
2024/01/07 00:58:46;;;;;;;20.50;10.48;;;;;;;;;;1034540;28;20046;-64
2024/01/07 00:59:17;;;;;;;20.25;10.55;;;;;;;;;;1036504;28;20050;-65
2024/01/07 00:59:47;;;;;;;23.00;11.63;;;;;;;;;;1035650;28;20182;-65
2024/01/07 01:00:18;;;;;;;22.40;10.73;;;;;;;;;;1037949;28;20485;-65
2024/01/07 01:00:49;;;;;;;20.73;9.73;;;;;;;;;;1035593;28;20414;-65
2024/01/07 01:01:19;;;;;;;17.27;10.07;;;;;;;;;;1037621;28;20525;-65
2024/01/07 01:01:50;;;;;;;21.27;10.02;;;;;;;;;;1035860;28;20053;-65
2024/01/07 01:02:21;;;;;;;21.20;9.90;;;;;;;;;;1036380;28;20060;-66
2024/01/07 01:02:52;;;;;;;22.38;10.38;;;;;;;;;;1036872;28;20167;-65
2024/01/07 01:03:22;;;;;;;20.38;10.80;;;;;;;;;;1037201;28;20057;-65
2024/01/07 01:03:53;;;;;;;24.25;10.40;;;;;;;;;;1036532;28;20063;-64
2024/01/07 01:04:23;;;;;;;23.13;11.40;;;;;;;;;;1037219;28;20124;-64
2024/01/07 01:04:54;;;;;;;21.33;10.98;;;;;;;;;;1036909;28;20053;-64
2024/01/07 01:05:24;;;;;;;21.25;11.48;;;;;;;;;;1036598;28;20075;-65
2024/01/07 01:05:55;;;;;;;19.58;9.95;;;;;;;;;;1036310;28;20060;-64
2024/01/07 01:06:25;;;;;;;20.65;10.35;;;;;;;;;;1037036;28;20104;-64
2024/01/07 01:06:56;;;;;;;21.77;10.00;;;;;;;;;;1036771;28;20056;-65
2024/01/07 01:07:26;;;;;;;19.63;10.77;;;;;;;;;;1037844;28;20058;-64
2024/01/07 01:07:57;;;;;;;19.48;9.63;;;;;;;;;;1035493;28;20064;-65
2024/01/07 01:08:27;;;;;;;21.08;10.57;;;;;;;;;;1035655;28;20067;-65
2024/01/07 01:08:58;;;;;;;21.08;10.27;;;;;;;;;;1035732;28;20053;-65
2024/01/07 01:09:29;;;;;;;20.88;10.27;;;;;;;;;;1036146;28;20041;-64
2024/01/07 01:10:00;;;;;;;21.30;10.38;;;;;;;;;;1036255;28;20785;-64
2024/01/07 01:10:30;;;;;;;19.10;9.93;;;;;;;;;;1035967;28;20064;-65
2024/01/07 01:11:01;;;;;;;17.45;9.00;;;;;;;;;;1036411;28;20057;-64
2024/01/07 01:11:31;;;;;;;19.75;11.05;;;;;;;;;;1035291;28;20054;-64
2024/01/07 01:12:02;;;;;;;20.73;10.35;;;;;;;;;;1035762;28;20054;-65
2024/01/07 01:12:32;;;;;;;20.42;10.25;;;;;;;;;;1036482;28;20131;-64
2024/01/07 01:13:03;;;;;;;22.20;10.98;;;;;;;;;;1037472;28;20480;-65
2024/01/07 01:13:34;;;;;;;19.52;10.52;;;;;;;;;;1036788;28;20530;-66
2024/01/07 01:14:04;;;;;;;22.40;10.32;;;;;;;;;;1036667;28;20077;-65
2024/01/07 01:14:35;;;;;;;21.02;10.82;;;;;;;;;;1036806;28;20041;-65
2024/01/07 01:15:06;;;;;;;22.73;10.10;;;;;;;;;;1037277;28;20148;-65
2024/01/07 01:15:36;;;;;;;19.10;10.23;;;;;;;;;;1036763;28;20561;-64
2024/01/07 01:16:06;;;;;;;17.92;9.70;;;;;;;;;;1036989;28;20363;-63
2024/01/07 01:16:37;;;;;;;21.13;9.65;;;;;;;;;;1036664;28;20052;-65
2024/01/07 01:17:08;;;;;;;20.90;10.32;;;;;;;;;;1034575;28;20046;-64
2024/01/07 01:17:38;;;;;;;19.05;9.38;;;;;;;;;;1035472;28;20053;-66
2024/01/07 01:18:09;;;;;;;17.35;9.30;;;;;;;;;;1036270;28;20134;-65
2024/01/07 01:18:39;;;;;;;18.88;9.40;;;;;;;;;;1035332;28;20045;-65
2024/01/07 01:19:10;;;;;;;17.65;9.80;;;;;;;;;;1036968;28;20405;-64
2024/01/07 01:19:40;;;;;;;15.68;8.68;;;;;;;;;;1035638;28;20504;-64
2024/01/07 01:20:11;;;;;;;20.10;9.18;;;;;;;;;;1037253;28;20045;-65
2024/01/07 01:20:42;;;;;;;20.52;10.05;;;;;;;;;;1036346;28;20049;-65
2024/01/07 01:21:12;;;;;;;19.08;10.10;;;;;;;;;;1036267;28;20050;-65
2024/01/07 01:21:43;;;;;;;16.58;9.25;;;;;;;;;;1036327;28;20157;-65
2024/01/07 01:22:13;;;;;;;19.83;9.48;;;;;;;;;;1036921;28;20607;-64
2024/01/07 01:22:44;;;;;;;22.17;9.85;;;;;;;;;;1036095;28;20052;-65
2024/01/07 01:23:14;;;;;;;19.65;10.25;;;;;;;;;;1034782;28;20057;-64
2024/01/07 01:23:46;;;;;;;20.30;10.90;;;;;;;;;;1037170;28;20049;-65
2024/01/07 01:24:17;;;;;;;21.13;11.07;;;;;;;;;;1036039;28;20095;-64
2024/01/07 01:24:48;;;;;;;18.63;10.10;;;;;;;;;;1037284;28;20183;-65
2024/01/07 01:25:19;;;;;;;19.25;9.57;;;;;;;;;;1037013;28;20072;-64
2024/01/07 01:25:49;;;;;;;26.60;11.18;;;;;;;;;;1036470;28;20128;-64
2024/01/07 01:26:20;;;;;;;21.20;11.23;;;;;;;;;;1037374;28;20049;-65
2024/01/07 01:26:50;;;;;;;19.88;10.35;;;;;;;;;;1036350;28;20048;-64
2024/01/07 01:27:21;;;;;;;18.50;9.73;;;;;;;;;;1034850;28;20061;-65
2024/01/07 01:27:52;;;;;;;16.25;9.38;;;;;;;;;;1037180;28;20367;-65
2024/01/07 01:28:22;;;;;;;19.42;9.93;;;;;;;;;;1036562;28;20045;-64
2024/01/07 01:28:53;;;;;;;20.63;9.73;;;;;;;;;;1035807;28;20458;-64
2024/01/07 01:29:24;;;;;;;20.73;10.32;;;;;;;;;;1035789;28;20764;-64
2024/01/07 01:29:54;;;;;;;18.52;9.05;;;;;;;;;;1035453;28;20907;-64
2024/01/07 01:30:25;;;;;;;21.92;9.52;;;;;;;;;;1036736;28;20349;-65
2024/01/07 01:30:55;;;;;;;23.15;9.75;;;;;;;;;;1036137;28;20501;-65
2024/01/07 01:31:26;;;;;;;20.85;10.48;;;;;;;;;;1034577;28;20685;-66
2024/01/07 01:31:57;;;;;;;18.23;10.10;;;;;;;;;;1033879;28;20060;-63
2024/01/07 01:32:27;;;;;;;17.98;9.43;;;;;;;;;;1034807;28;20053;-64
2024/01/07 01:32:58;;;;;;;19.73;10.02;;;;;;;;;;1034867;28;20073;-65
2024/01/07 01:33:28;;;;;;;19.20;10.55;;;;;;;;;;1034325;28;20054;-64
2024/01/07 01:33:59;;;;;;;23.98;9.65;;;;;;;;;;1034814;28;20049;-64
2024/01/07 01:34:29;;;;;;;19.80;9.73;;;;;;;;;;1033888;28;20525;-63
2024/01/07 01:35:00;;;;;;;20.75;10.20;;;;;;;;;;1034045;28;20053;-64
2024/01/07 01:35:30;;;;;;;19.83;10.95;;;;;;;;;;1034392;28;20670;-63
2024/01/07 01:36:04;;;;;;;20.92;10.45;;;;;;;;;;1034358;28;20658;-64
2024/01/07 01:36:35;;;;;;;22.80;10.95;;;;;;;;;;1033875;28;20167;-64
2024/01/07 01:37:05;;;;;;;19.83;9.68;;;;;;;;;;1034428;28;20105;-65
2024/01/07 01:37:36;;;;;;;20.45;10.23;;;;;;;;;;1034413;28;20057;-64
2024/01/07 01:38:06;;;;;;;16.95;9.75;;;;;;;;;;1035408;28;20057;-65
2024/01/07 01:38:37;;;;;;;18.42;10.10;;;;;;;;;;1035156;28;20366;-64
2024/01/07 01:39:08;;;;;;;14.90;8.63;;;;;;;;;;1035090;28;20093;-65
2024/01/07 01:39:41;;;;;;;17.27;9.50;;;;;;;;;;1036920;28;20050;-65
2024/01/07 01:40:12;;;;;;;20.70;9.30;;;;;;;;;;1034211;28;20076;-64
2024/01/07 01:40:42;;;;;;;21.45;10.23;;;;;;;;;;1034222;28;20529;-64
2024/01/07 01:41:13;;;;;;;18.85;9.73;;;;;;;;;;1033819;28;20506;-65
2024/01/07 01:41:43;;;;;;;19.90;9.98;;;;;;;;;;1035095;28;20461;-66
2024/01/07 01:42:14;;;;;;;16.88;9.35;;;;;;;;;;1034478;28;20046;-65
2024/01/07 01:42:45;;;;;;;17.70;9.82;;;;;;;;;;1034926;28;20056;-65
2024/01/07 01:43:25;;;;;;;16.75;9.95;;;;;;;;;;1035332;28;20046;-65
2024/01/07 01:43:59;;;;;;;19.00;9.68;;;;;;;;;;1033794;28;20148;-65
2024/01/07 01:44:31;;;;;;;18.52;9.70;;;;;;;;;;1034810;28;20601;-65
2024/01/07 01:45:02;;;;;;;18.30;10.57;;;;;;;;;;1035433;28;20513;-66
2024/01/07 01:45:32;;;;;;;17.92;9.63;;;;;;;;;;1035912;28;20806;-66
2024/01/07 01:46:03;;;;;;;22.65;9.73;;;;;;;;;;1034470;28;20414;-64
2024/01/07 01:46:34;;;;;;;19.20;10.48;;;;;;;;;;1037347;28;20540;-64
2024/01/07 01:47:06;;;;;;;18.40;9.88;;;;;;;;;;1034863;28;20104;-65
2024/01/07 01:47:37;;;;;;;16.50;10.00;;;;;;;;;;1035708;28;20053;-66
2024/01/07 01:48:07;;;;;;;21.45;9.70;;;;;;;;;;1038148;28;20037;-65
2024/01/07 01:48:39;;;;;;;19.75;10.50;;;;;;;;;;1034506;28;20135;-65
2024/01/07 01:49:10;;;;;;;17.10;9.57;;;;;;;;;;1037062;28;20124;-64
2024/01/07 01:49:40;;;;;;;19.15;9.18;;;;;;;;;;1035231;28;20049;-65
2024/01/07 01:50:12;;;;;;;20.08;10.00;;;;;;;;;;1036192;28;21094;-64
2024/01/07 01:50:42;;;;;;;22.67;10.40;;;;;;;;;;1033758;28;20122;-64
2024/01/07 01:51:13;;;;;;;18.23;10.02;;;;;;;;;;1034074;28;20136;-66
2024/01/07 01:51:43;;;;;;;20.98;10.23;;;;;;;;;;1033846;28;20049;-65
2024/01/07 01:52:14;;;;;;;21.63;9.82;;;;;;;;;;1034715;28;20053;-65
2024/01/07 01:52:45;;;;;;;18.70;9.98;;;;;;;;;;1034238;28;20053;-65
2024/01/07 01:53:16;;;;;;;14.95;8.98;;;;;;;;;;1034228;28;20064;-64
2024/01/07 01:53:47;;;;;;;18.63;9.82;;;;;;;;;;1035533;28;20066;-65
2024/01/07 01:54:19;;;;;;;17.60;9.38;;;;;;;;;;1036471;28;20084;-64
2024/01/07 01:54:50;;;;;;;18.90;10.18;;;;;;;;;;1036291;28;20406;-66
2024/01/07 01:55:20;;;;;;;19.73;9.63;;;;;;;;;;1036027;28;20512;-65
2024/01/07 01:55:51;;;;;;;20.38;9.77;;;;;;;;;;1033866;28;20057;-65
2024/01/07 01:56:22;;;;;;;18.35;10.20;;;;;;;;;;1034971;28;20053;-66
2024/01/07 01:56:53;;;;;;;20.70;10.30;;;;;;;;;;1034257;28;20049;-64
2024/01/07 01:57:32;;;;;;;19.15;10.38;;;;;;;;;;1034984;28;20046;-64
2024/01/07 01:58:03;;;;;;;16.20;9.82;;;;;;;;;;1035355;28;20520;-65
2024/01/07 01:58:34;;;;;;;20.25;9.65;;;;;;;;;;1034081;28;20085;-65
2024/01/07 01:59:05;;;;;;;19.63;10.35;;;;;;;;;;1035703;28;20100;-64
2024/01/07 01:59:36;;;;;;;15.85;9.30;;;;;;;;;;1035264;28;20054;-66
2024/01/07 02:00:08;;;;;;;19.98;9.30;;;;;;;;;;1034564;28;20061;-64
2024/01/07 02:00:39;;;;;;;19.52;10.13;;;;;;;;;;1034914;28;20046;-64
2024/01/07 02:01:10;;;;;;;17.95;10.30;;;;;;;;;;1033023;28;20045;-64
2024/01/07 02:01:41;;;;;;;16.50;9.40;;;;;;;;;;1034262;28;20060;-64
2024/01/07 02:02:11;;;;;;;22.58;10.80;;;;;;;;;;1035820;28;20045;-65
2024/01/07 02:02:42;;;;;;;20.95;9.10;;;;;;;;;;1034927;28;22160;-64
2024/01/07 02:03:12;;;;;;;19.40;9.40;;;;;;;;;;1034145;28;20070;-64
2024/01/07 02:03:43;;;;;;;17.02;9.23;;;;;;;;;;1035376;28;20038;-64
2024/01/07 02:04:15;;;;;;;18.33;9.43;;;;;;;;;;1035677;28;20041;-65
2024/01/07 02:04:45;;;;;;;17.00;10.70;;;;;;;;;;1035400;28;20149;-64
2024/01/07 02:05:16;;;;;;;18.52;9.82;;;;;;;;;;1035146;28;20046;-64
2024/01/07 02:05:49;;;;;;;20.80;9.70;;;;;;;;;;1033917;28;20052;-63
2024/01/07 02:06:21;;;;;;;18.90;10.80;;;;;;;;;;1034129;28;20510;-65
2024/01/07 02:06:51;;;;;;;19.58;10.55;;;;;;;;;;1033043;28;20057;-64
2024/01/07 02:07:22;;;;;;;23.98;10.93;;;;;;;;;;1035504;28;20164;-64
2024/01/07 02:07:54;;;;;;;14.52;9.43;;;;;;;;;;1033441;28;20104;-65
2024/01/07 02:08:26;;;;;;;16.52;8.85;;;;;;;;;;1034263;28;20810;-64
2024/01/07 02:08:57;;;;;;;18.00;9.50;;;;;;;;;;1035461;28;20451;-64
2024/01/07 02:09:27;;;;;;;22.88;10.70;;;;;;;;;;1035179;28;20045;-64
2024/01/07 02:09:59;;;;;;;19.67;10.50;;;;;;;;;;1034173;28;20057;-64
2024/01/07 02:10:34;;;;;;;19.95;10.60;;;;;;;;;;1034990;28;20091;-65
2024/01/07 02:11:19;;;;;;;15.52;9.88;;;;;;;;;;1034718;28;20135;-65
2024/01/07 02:12:05;;;;;;;14.35;8.32;;;;;;;;;;1034841;28;20192;-65
2024/01/07 02:12:36;;;;;;;19.73;9.32;;;;;;;;;;1034433;28;20077;-65
2024/01/07 02:13:07;;;;;;;16.40;9.35;;;;;;;;;;1034615;28;20046;-65
2024/01/07 02:13:37;;;;;;;16.05;8.75;;;;;;;;;;1038411;28;20166;-65
2024/01/07 02:14:08;;;;;;;18.25;8.95;;;;;;;;;;1037915;28;20076;-64
2024/01/07 02:14:39;;;;;;;19.00;9.82;;;;;;;;;;1037402;28;20050;-65
2024/01/07 02:15:09;;;;;;;18.15;9.50;;;;;;;;;;1038768;28;20061;-65
2024/01/07 02:15:40;;;;;;;16.08;9.50;;;;;;;;;;1033846;28;20140;-64
2024/01/07 02:16:11;;;;;;;20.80;10.27;;;;;;;;;;1036546;28;20053;-65
2024/01/07 02:16:42;;;;;;;15.15;9.05;;;;;;;;;;1034844;28;20099;-66
2024/01/07 02:17:12;;;;;;;16.17;9.20;;;;;;;;;;1035644;28;20099;-65
2024/01/07 02:17:43;;;;;;;14.77;8.40;;;;;;;;;;1036110;28;20045;-63
2024/01/07 02:18:14;;;;;;;17.17;9.20;;;;;;;;;;1033356;28;20053;-65
2024/01/07 02:18:45;;;;;;;17.65;8.48;;;;;;;;;;1034959;28;20087;-64
2024/01/07 02:19:16;;;;;;;14.27;9.15;;;;;;;;;;1036080;28;20049;-65
2024/01/07 02:19:47;;;;;;;14.02;8.50;;;;;;;;;;1035362;28;20402;-65
2024/01/07 02:20:18;;;;;;;16.73;8.90;;;;;;;;;;1036546;28;20095;-65
2024/01/07 02:20:48;;;;;;;12.35;7.65;;;;;;;;;;1035900;28;20057;-65
2024/01/07 02:21:19;;;;;;;16.17;8.43;;;;;;;;;;1034125;28;20163;-65
2024/01/07 02:21:50;;;;;;;16.83;9.07;;;;;;;;;;1034762;28;20042;-65
2024/01/07 02:22:21;;;;;;;19.65;10.13;;;;;;;;;;1036249;28;20059;-65
2024/01/07 02:22:51;;;;;;;15.63;8.18;;;;;;;;;;1035265;28;20046;-63
2024/01/07 02:23:22;;;;;;;17.17;9.13;;;;;;;;;;1034617;28;20056;-64
2024/01/07 02:23:53;;;;;;;16.10;8.88;;;;;;;;;;1036177;28;20041;-64
2024/01/07 02:24:23;;;;;;;15.85;8.95;;;;;;;;;;1035276;28;20058;-66
2024/01/07 02:24:54;;;;;;;13.63;8.05;;;;;;;;;;1036019;28;20056;-65
2024/01/07 02:25:25;;;;;;;14.38;8.80;;;;;;;;;;1035139;28;20520;-65
2024/01/07 02:25:55;;;;;;;19.75;8.55;;;;;;;;;;1033925;28;20410;-65
2024/01/07 02:26:26;;;;;;;15.82;8.05;;;;;;;;;;1036179;28;20041;-66
2024/01/07 02:26:56;;;;;;;17.92;9.77;;;;;;;;;;1034799;28;20053;-64
2024/01/07 02:27:27;;;;;;;15.40;9.23;;;;;;;;;;1034613;28;20576;-65
2024/01/07 02:27:58;;;;;;;15.50;8.88;;;;;;;;;;1034840;28;20053;-65
2024/01/07 02:28:29;;;;;;;17.67;9.25;;;;;;;;;;1035517;28;20064;-64
2024/01/07 02:29:00;;;;;;;18.00;9.35;;;;;;;;;;1034974;28;20054;-65
2024/01/07 02:29:30;;;;;;;15.13;9.18;;;;;;;;;;1036028;28;20053;-65
2024/01/07 02:30:01;;;;;;;18.30;10.15;;;;;;;;;;1034950;28;20061;-64
2024/01/07 02:30:32;;;;;;;16.63;8.60;;;;;;;;;;1036115;28;20045;-64
2024/01/07 02:31:02;;;;;;;16.00;8.90;;;;;;;;;;1036752;28;20042;-65
2024/01/07 02:31:33;;;;;;;19.13;8.68;;;;;;;;;;1036191;28;20053;-64
2024/01/07 02:32:04;;;;;;;16.17;8.98;;;;;;;;;;1036687;28;20060;-65
2024/01/07 02:32:35;;;;;;;14.55;8.23;;;;;;;;;;1035521;28;20049;-65
2024/01/07 02:33:06;;;;;;;15.38;8.80;;;;;;;;;;1035719;28;20053;-63
2024/01/07 02:33:36;;;;;;;16.05;8.88;;;;;;;;;;1033346;28;20049;-65
2024/01/07 02:34:09;;;;;;;14.02;8.23;;;;;;;;;;1035117;28;20498;-64
2024/01/07 02:34:40;;;;;;;17.15;8.82;;;;;;;;;;1033433;28;20052;-65
2024/01/07 02:35:10;;;;;;;15.43;9.23;;;;;;;;;;1034765;28;20058;-65
2024/01/07 02:35:41;;;;;;;14.05;8.55;;;;;;;;;;1035217;28;20054;-65
2024/01/07 02:36:11;;;;;;;15.70;8.80;;;;;;;;;;1034324;28;20053;-64
2024/01/07 02:36:42;;;;;;;22.88;9.30;;;;;;;;;;1033660;28;20088;-65
2024/01/07 02:37:12;;;;;;;16.58;8.95;;;;;;;;;;1034924;28;20068;-64
2024/01/07 02:37:43;;;;;;;13.40;8.57;;;;;;;;;;1033735;28;20421;-65
2024/01/07 02:38:14;;;;;;;16.77;8.65;;;;;;;;;;1034574;28;20046;-65
2024/01/07 02:38:44;;;;;;;16.95;8.52;;;;;;;;;;1034780;28;20514;-65
2024/01/07 02:39:15;;;;;;;18.02;9.75;;;;;;;;;;1036125;28;20045;-65
2024/01/07 02:39:45;;;;;;;20.17;8.60;;;;;;;;;;1034198;28;20061;-64
2024/01/07 02:40:16;;;;;;;17.88;9.23;;;;;;;;;;1035404;28;20493;-65
2024/01/07 02:40:46;;;;;;;19.75;8.77;;;;;;;;;;1034478;28;20076;-65
2024/01/07 02:41:16;;;;;;;16.00;8.68;;;;;;;;;;1035104;28;20041;-65
2024/01/07 02:41:48;;;;;;;16.85;9.05;;;;;;;;;;1035971;28;20060;-65
2024/01/07 02:42:19;;;;;;;15.15;8.88;;;;;;;;;;1038086;28;20449;-64
2024/01/07 02:42:49;;;;;;;16.67;8.35;;;;;;;;;;1035637;28;20556;-66
2024/01/07 02:43:20;;;;;;;18.83;8.95;;;;;;;;;;1035361;28;20446;-65
2024/01/07 02:43:50;;;;;;;17.60;9.35;;;;;;;;;;1035945;28;20064;-65
2024/01/07 02:44:21;;;;;;;16.23;8.75;;;;;;;;;;1035875;28;20037;-65
2024/01/07 02:44:51;;;;;;;15.50;8.27;;;;;;;;;;1035181;28;20579;-65
2024/01/07 02:45:22;;;;;;;16.25;8.82;;;;;;;;;;1036217;28;20049;-65
2024/01/07 02:45:53;;;;;;;17.08;9.10;;;;;;;;;;1036570;28;20052;-66
2024/01/07 02:46:24;;;;;;;17.77;9.18;;;;;;;;;;1034696;28;20065;-64
2024/01/07 02:46:54;;;;;;;17.50;8.77;;;;;;;;;;1035954;28;20061;-64
2024/01/07 02:47:25;;;;;;;14.95;8.57;;;;;;;;;;1036986;28;20057;-65
2024/01/07 02:47:55;;;;;;;19.73;9.32;;;;;;;;;;1035968;28;20061;-64
2024/01/07 02:48:26;;;;;;;15.07;9.00;;;;;;;;;;1035402;28;20092;-66
2024/01/07 02:48:57;;;;;;;19.20;9.13;;;;;;;;;;1034880;28;21207;-65
2024/01/07 02:49:28;;;;;;;17.70;8.82;;;;;;;;;;1036774;28;20621;-64
2024/01/07 02:49:58;;;;;;;18.70;9.13;;;;;;;;;;1035824;28;20092;-65
2024/01/07 02:50:29;;;;;;;15.20;8.07;;;;;;;;;;1035898;28;20045;-65
2024/01/07 02:51:00;;;;;;;13.88;8.45;;;;;;;;;;1035936;28;20061;-65
2024/01/07 02:51:31;;;;;;;16.17;8.15;;;;;;;;;;1035387;28;20052;-64
2024/01/07 02:52:01;;;;;;;15.95;8.45;;;;;;;;;;1035591;28;20084;-64
2024/01/07 02:52:32;;;;;;;16.42;10.23;;;;;;;;;;1035633;28;20037;-64
2024/01/07 02:53:03;;;;;;;17.02;9.35;;;;;;;;;;1034289;28;20053;-65
2024/01/07 02:53:33;;;;;;;17.27;8.63;;;;;;;;;;1035190;28;20176;-65
2024/01/07 02:54:04;;;;;;;16.33;9.02;;;;;;;;;;1035061;28;20569;-65
2024/01/07 02:54:34;;;;;;;15.90;8.32;;;;;;;;;;1033729;28;20049;-65
2024/01/07 02:55:05;;;;;;;17.38;9.18;;;;;;;;;;1035604;28;20042;-65
2024/01/07 02:55:36;;;;;;;16.08;9.18;;;;;;;;;;1033896;28;20045;-65
2024/01/07 02:56:08;;;;;;;15.00;8.10;;;;;;;;;;1036165;28;23338;-65
2024/01/07 02:56:39;;;;;;;19.50;9.75;;;;;;;;;;1034501;28;20050;-65
2024/01/07 02:57:09;;;;;;;17.13;9.57;;;;;;;;;;1034733;28;20064;-65
2024/01/07 02:57:40;;;;;;;17.52;8.73;;;;;;;;;;1035348;28;20049;-64
2024/01/07 02:58:10;;;;;;;12.90;7.78;;;;;;;;;;1034709;28;20053;-65
2024/01/07 02:58:41;;;;;;;12.85;7.97;;;;;;;;;;1034945;28;20061;-64
2024/01/07 02:59:11;;;;;;;16.90;8.27;;;;;;;;;;1035173;28;20212;-64
2024/01/07 02:59:42;;;;;;;13.93;8.57;;;;;;;;;;1034668;28;20140;-65
2024/01/07 03:00:13;;;;;;;12.95;7.90;;;;;;;;;;1035072;28;20061;-65
2024/01/07 03:00:43;;;;;;;15.40;8.90;;;;;;;;;;1033827;28;20050;-64
2024/01/07 03:01:14;;;;;;;15.73;8.35;;;;;;;;;;1034027;28;20057;-64